sensor_id;sensor_type;location;lat;lon;timestamp;P1;durP1;ratioP1;P2;durP2;ratioP2
74616;SDS011;63123;50.906;4.198;2022-11-15T00:00:49;5.70;;;5.20;;
74616;SDS011;63123;50.906;4.198;2022-11-15T00:03:15;5.90;;;5.40;;
74616;SDS011;63123;50.906;4.198;2022-11-15T00:05:42;5.82;;;5.32;;
74616;SDS011;63123;50.906;4.198;2022-11-15T00:08:08;5.95;;;5.55;;
74616;SDS011;63123;50.906;4.198;2022-11-15T00:10:34;6.00;;;5.50;;
74616;SDS011;63123;50.906;4.198;2022-11-15T00:12:59;5.82;;;5.32;;
74616;SDS011;63123;50.906;4.198;2022-11-15T00:15:28;6.03;;;5.53;;
74616;SDS011;63123;50.906;4.198;2022-11-15T00:17:54;5.20;;;4.75;;
74616;SDS011;63123;50.906;4.198;2022-11-15T00:20:19;5.13;;;4.72;;
74616;SDS011;63123;50.906;4.198;2022-11-15T00:22:45;6.10;;;5.55;;
74616;SDS011;63123;50.906;4.198;2022-11-15T00:25:10;5.95;;;5.55;;
74616;SDS011;63123;50.906;4.198;2022-11-15T00:27:36;5.50;;;5.10;;
74616;SDS011;63123;50.906;4.198;2022-11-15T00:30:02;6.07;;;5.57;;
74616;SDS011;63123;50.906;4.198;2022-11-15T00:32:31;5.80;;;5.22;;
74616;SDS011;63123;50.906;4.198;2022-11-15T00:34:57;6.05;;;5.45;;
74616;SDS011;63123;50.906;4.198;2022-11-15T00:37:22;5.72;;;5.22;;
74616;SDS011;63123;50.906;4.198;2022-11-15T00:39:48;5.22;;;4.82;;
74616;SDS011;63123;50.906;4.198;2022-11-15T00:42:13;6.13;;;5.63;;
74616;SDS011;63123;50.906;4.198;2022-11-15T00:44:39;5.43;;;4.93;;
74616;SDS011;63123;50.906;4.198;2022-11-15T00:47:04;5.63;;;5.13;;
74616;SDS011;63123;50.906;4.198;2022-11-15T00:49:30;5.22;;;4.82;;
74616;SDS011;63123;50.906;4.198;2022-11-15T00:51:56;5.30;;;4.90;;
74616;SDS011;63123;50.906;4.198;2022-11-15T00:54:21;5.30;;;4.80;;
74616;SDS011;63123;50.906;4.198;2022-11-15T00:56:47;5.43;;;4.93;;
74616;SDS011;63123;50.906;4.198;2022-11-15T00:59:12;5.50;;;5.00;;
74616;SDS011;63123;50.906;4.198;2022-11-15T01:01:38;5.60;;;5.10;;
74616;SDS011;63123;50.906;4.198;2022-11-15T01:04:03;5.47;;;4.97;;
74616;SDS011;63123;50.906;4.198;2022-11-15T01:06:29;5.57;;;5.07;;
74616;SDS011;63123;50.906;4.198;2022-11-15T01:08:54;4.70;;;4.30;;
74616;SDS011;63123;50.906;4.198;2022-11-15T01:11:20;5.25;;;4.88;;
74616;SDS011;63123;50.906;4.198;2022-11-15T01:13:46;5.93;;;5.43;;
74616;SDS011;63123;50.906;4.198;2022-11-15T01:16:12;5.05;;;4.65;;
74616;SDS011;63123;50.906;4.198;2022-11-15T01:18:43;5.85;;;4.85;;
74616;SDS011;63123;50.906;4.198;2022-11-15T01:21:10;4.68;;;4.28;;
74616;SDS011;63123;50.906;4.198;2022-11-15T01:23:38;5.53;;;5.07;;
74616;SDS011;63123;50.906;4.198;2022-11-15T01:26:04;5.43;;;5.03;;
74616;SDS011;63123;50.906;4.198;2022-11-15T01:28:32;5.43;;;4.93;;
74616;SDS011;63123;50.906;4.198;2022-11-15T01:30:59;5.72;;;5.22;;
74616;SDS011;63123;50.906;4.198;2022-11-15T01:33:30;4.80;;;4.40;;
74616;SDS011;63123;50.906;4.198;2022-11-15T01:35:58;5.60;;;5.20;;
74616;SDS011;63123;50.906;4.198;2022-11-15T01:38:32;5.43;;;4.95;;
74616;SDS011;63123;50.906;4.198;2022-11-15T01:40:59;5.05;;;4.55;;
74616;SDS011;63123;50.906;4.198;2022-11-15T01:43:26;4.85;;;4.40;;
74616;SDS011;63123;50.906;4.198;2022-11-15T01:45:56;4.72;;;4.32;;
74616;SDS011;63123;50.906;4.198;2022-11-15T01:48:29;4.50;;;4.20;;
74616;SDS011;63123;50.906;4.198;2022-11-15T01:51:00;4.88;;;4.47;;
74616;SDS011;63123;50.906;4.198;2022-11-15T01:53:31;4.28;;;3.95;;
74616;SDS011;63123;50.906;4.198;2022-11-15T01:55:58;4.47;;;4.10;;
74616;SDS011;63123;50.906;4.198;2022-11-15T01:58:27;4.53;;;4.10;;
74616;SDS011;63123;50.906;4.198;2022-11-15T02:00:52;4.90;;;4.50;;
74616;SDS011;63123;50.906;4.198;2022-11-15T02:03:18;4.60;;;4.30;;
74616;SDS011;63123;50.906;4.198;2022-11-15T02:05:46;4.22;;;3.83;;
74616;SDS011;63123;50.906;4.198;2022-11-15T02:08:12;4.47;;;4.07;;
74616;SDS011;63123;50.906;4.198;2022-11-15T02:10:45;5.13;;;4.70;;
74616;SDS011;63123;50.906;4.198;2022-11-15T02:13:14;4.93;;;4.53;;
74616;SDS011;63123;50.906;4.198;2022-11-15T02:15:49;4.70;;;4.30;;
74616;SDS011;63123;50.906;4.198;2022-11-15T02:29:13;4.82;;;4.43;;
74616;SDS011;63123;50.906;4.198;2022-11-15T02:31:54;4.85;;;4.50;;
74616;SDS011;63123;50.906;4.198;2022-11-15T02:37:07;4.50;;;4.20;;
74616;SDS011;63123;50.906;4.198;2022-11-15T02:39:53;5.05;;;4.60;;
74616;SDS011;63123;50.906;4.198;2022-11-15T02:42:26;4.90;;;4.50;;
74616;SDS011;63123;50.906;4.198;2022-11-15T02:45:19;4.88;;;4.13;;
74616;SDS011;63123;50.906;4.198;2022-11-15T02:47:49;4.43;;;4.10;;
74616;SDS011;63123;50.906;4.198;2022-11-15T02:50:20;4.28;;;3.97;;
74616;SDS011;63123;50.906;4.198;2022-11-15T02:52:49;4.53;;;4.13;;
74616;SDS011;63123;50.906;4.198;2022-11-15T03:00:47;4.43;;;4.00;;
74616;SDS011;63123;50.906;4.198;2022-11-15T03:03:44;3.90;;;3.60;;
74616;SDS011;63123;50.906;4.198;2022-11-15T03:08:53;4.13;;;3.83;;
74616;SDS011;63123;50.906;4.198;2022-11-15T03:11:29;3.95;;;3.60;;
74616;SDS011;63123;50.906;4.198;2022-11-15T03:19:34;4.68;;;4.30;;
74616;SDS011;63123;50.906;4.198;2022-11-15T03:22:08;4.43;;;3.97;;
74616;SDS011;63123;50.906;4.198;2022-11-15T03:24:37;4.10;;;3.78;;
74616;SDS011;63123;50.906;4.198;2022-11-15T03:27:05;4.63;;;4.15;;
74616;SDS011;63123;50.906;4.198;2022-11-15T03:29:32;3.55;;;3.33;;
74616;SDS011;63123;50.906;4.198;2022-11-15T03:32:03;4.28;;;3.88;;
74616;SDS011;63123;50.906;4.198;2022-11-15T03:34:43;4.10;;;3.78;;
74616;SDS011;63123;50.906;4.198;2022-11-15T03:37:15;4.10;;;3.60;;
74616;SDS011;63123;50.906;4.198;2022-11-15T03:39:42;3.83;;;3.53;;
74616;SDS011;63123;50.906;4.198;2022-11-15T03:47:46;4.00;;;3.70;;
74616;SDS011;63123;50.906;4.198;2022-11-15T03:50:18;3.88;;;3.58;;
74616;SDS011;63123;50.906;4.198;2022-11-15T03:52:46;3.67;;;3.38;;
74616;SDS011;63123;50.906;4.198;2022-11-15T03:55:14;3.75;;;3.45;;
74616;SDS011;63123;50.906;4.198;2022-11-15T03:57:43;4.47;;;4.18;;
74616;SDS011;63123;50.906;4.198;2022-11-15T04:00:09;3.60;;;3.30;;
74616;SDS011;63123;50.906;4.198;2022-11-15T04:02:36;3.70;;;3.40;;
74616;SDS011;63123;50.906;4.198;2022-11-15T04:05:02;4.60;;;4.20;;
74616;SDS011;63123;50.906;4.198;2022-11-15T04:07:28;3.60;;;3.30;;
74616;SDS011;63123;50.906;4.198;2022-11-15T04:09:53;3.53;;;3.22;;
74616;SDS011;63123;50.906;4.198;2022-11-15T04:12:28;3.50;;;3.20;;
74616;SDS011;63123;50.906;4.198;2022-11-15T04:15:02;3.75;;;3.45;;
74616;SDS011;63123;50.906;4.198;2022-11-15T04:17:42;3.63;;;3.38;;
74616;SDS011;63123;50.906;4.198;2022-11-15T04:20:10;3.75;;;3.45;;
74616;SDS011;63123;50.906;4.198;2022-11-15T04:23:03;3.97;;;3.58;;
74616;SDS011;63123;50.906;4.198;2022-11-15T04:25:52;3.55;;;3.25;;
74616;SDS011;63123;50.906;4.198;2022-11-15T04:28:19;4.28;;;3.90;;
74616;SDS011;63123;50.906;4.198;2022-11-15T04:30:45;3.72;;;3.42;;
74616;SDS011;63123;50.906;4.198;2022-11-15T04:33:11;3.97;;;3.60;;
74616;SDS011;63123;50.906;4.198;2022-11-15T04:35:36;3.88;;;3.58;;
74616;SDS011;63123;50.906;4.198;2022-11-15T04:38:03;3.88;;;3.58;;
74616;SDS011;63123;50.906;4.198;2022-11-15T04:40:29;3.75;;;3.25;;
74616;SDS011;63123;50.906;4.198;2022-11-15T04:42:55;3.60;;;3.30;;
74616;SDS011;63123;50.906;4.198;2022-11-15T04:45:21;3.28;;;3.00;;
74616;SDS011;63123;50.906;4.198;2022-11-15T04:47:47;3.40;;;3.10;;
74616;SDS011;63123;50.906;4.198;2022-11-15T04:50:13;3.83;;;3.53;;
74616;SDS011;63123;50.906;4.198;2022-11-15T04:52:46;3.30;;;3.10;;
74616;SDS011;63123;50.906;4.198;2022-11-15T04:55:16;2.88;;;2.67;;
74616;SDS011;63123;50.906;4.198;2022-11-15T04:57:41;3.53;;;3.22;;
74616;SDS011;63123;50.906;4.198;2022-11-15T05:00:08;3.45;;;3.15;;
74616;SDS011;63123;50.906;4.198;2022-11-15T05:02:36;2.90;;;2.70;;
74616;SDS011;63123;50.906;4.198;2022-11-15T05:05:21;3.38;;;3.08;;
74616;SDS011;63123;50.906;4.198;2022-11-15T05:07:46;3.22;;;3.03;;
74616;SDS011;63123;50.906;4.198;2022-11-15T05:10:12;2.97;;;2.78;;
74616;SDS011;63123;50.906;4.198;2022-11-15T05:12:37;3.00;;;2.80;;
74616;SDS011;63123;50.906;4.198;2022-11-15T05:15:04;3.17;;;2.95;;
74616;SDS011;63123;50.906;4.198;2022-11-15T05:17:29;2.90;;;2.70;;
74616;SDS011;63123;50.906;4.198;2022-11-15T05:19:55;3.33;;;3.03;;
74616;SDS011;63123;50.906;4.198;2022-11-15T05:22:21;2.97;;;2.78;;
74616;SDS011;63123;50.906;4.198;2022-11-15T05:24:46;3.30;;;3.00;;
74616;SDS011;63123;50.906;4.198;2022-11-15T05:27:12;2.90;;;2.70;;
74616;SDS011;63123;50.906;4.198;2022-11-15T05:29:37;3.40;;;3.10;;
74616;SDS011;63123;50.906;4.198;2022-11-15T05:32:04;2.85;;;2.65;;
74616;SDS011;63123;50.906;4.198;2022-11-15T05:34:31;3.08;;;2.83;;
74616;SDS011;63123;50.906;4.198;2022-11-15T05:36:57;2.75;;;2.55;;
74616;SDS011;63123;50.906;4.198;2022-11-15T05:39:23;2.88;;;2.67;;
74616;SDS011;63123;50.906;4.198;2022-11-15T05:41:52;2.75;;;2.55;;
74616;SDS011;63123;50.906;4.198;2022-11-15T05:44:22;2.90;;;2.70;;
74616;SDS011;63123;50.906;4.198;2022-11-15T05:46:49;2.53;;;2.33;;
74616;SDS011;63123;50.906;4.198;2022-11-15T05:49:19;2.95;;;2.70;;
74616;SDS011;63123;50.906;4.198;2022-11-15T05:51:48;2.78;;;2.58;;
74616;SDS011;63123;50.906;4.198;2022-11-15T05:54:16;2.90;;;2.60;;
74616;SDS011;63123;50.906;4.198;2022-11-15T05:56:44;2.88;;;2.67;;
74616;SDS011;63123;50.906;4.198;2022-11-15T05:59:10;3.13;;;2.65;;
74616;SDS011;63123;50.906;4.198;2022-11-15T06:01:36;2.80;;;2.60;;
74616;SDS011;63123;50.906;4.198;2022-11-15T06:04:03;2.63;;;2.50;;
74616;SDS011;63123;50.906;4.198;2022-11-15T06:06:29;2.60;;;2.40;;
74616;SDS011;63123;50.906;4.198;2022-11-15T06:08:54;2.35;;;2.15;;
74616;SDS011;63123;50.906;4.198;2022-11-15T06:11:20;2.75;;;2.55;;
74616;SDS011;63123;50.906;4.198;2022-11-15T06:13:45;3.20;;;2.90;;
74616;SDS011;63123;50.906;4.198;2022-11-15T06:16:11;3.00;;;2.80;;
74616;SDS011;63123;50.906;4.198;2022-11-15T06:18:37;2.65;;;2.45;;
74616;SDS011;63123;50.906;4.198;2022-11-15T06:21:03;2.90;;;2.70;;
74616;SDS011;63123;50.906;4.198;2022-11-15T06:23:32;2.90;;;2.38;;
74616;SDS011;63123;50.906;4.198;2022-11-15T06:25:59;2.42;;;2.22;;
74616;SDS011;63123;50.906;4.198;2022-11-15T06:28:29;2.42;;;2.22;;
74616;SDS011;63123;50.906;4.198;2022-11-15T06:31:01;2.28;;;2.13;;
74616;SDS011;63123;50.906;4.198;2022-11-15T06:33:28;2.83;;;2.60;;
74616;SDS011;63123;50.906;4.198;2022-11-15T06:35:53;2.53;;;2.33;;
74616;SDS011;63123;50.906;4.198;2022-11-15T06:38:19;2.30;;;2.10;;
74616;SDS011;63123;50.906;4.198;2022-11-15T06:40:45;2.38;;;2.17;;
74616;SDS011;63123;50.906;4.198;2022-11-15T06:43:10;2.55;;;2.35;;
74616;SDS011;63123;50.906;4.198;2022-11-15T06:45:36;2.35;;;2.20;;
74616;SDS011;63123;50.906;4.198;2022-11-15T06:48:01;2.90;;;2.70;;
74616;SDS011;63123;50.906;4.198;2022-11-15T06:50:27;2.53;;;2.33;;
74616;SDS011;63123;50.906;4.198;2022-11-15T06:52:53;2.95;;;2.75;;
74616;SDS011;63123;50.906;4.198;2022-11-15T06:55:19;2.58;;;2.30;;
74616;SDS011;63123;50.906;4.198;2022-11-15T06:57:49;2.60;;;1.98;;
74616;SDS011;63123;50.906;4.198;2022-11-15T07:00:16;2.42;;;2.22;;
74616;SDS011;63123;50.906;4.198;2022-11-15T07:02:43;3.20;;;2.72;;
74616;SDS011;63123;50.906;4.198;2022-11-15T07:05:09;2.38;;;2.10;;
74616;SDS011;63123;50.906;4.198;2022-11-15T07:07:35;2.72;;;2.40;;
74616;SDS011;63123;50.906;4.198;2022-11-15T07:10:00;2.10;;;1.90;;
74616;SDS011;63123;50.906;4.198;2022-11-15T07:12:26;2.17;;;1.95;;
74616;SDS011;63123;50.906;4.198;2022-11-15T07:14:51;2.78;;;2.58;;
74616;SDS011;63123;50.906;4.198;2022-11-15T07:17:17;2.30;;;2.10;;
74616;SDS011;63123;50.906;4.198;2022-11-15T07:19:43;2.13;;;1.92;;
74616;SDS011;63123;50.906;4.198;2022-11-15T07:22:08;2.20;;;2.05;;
74616;SDS011;63123;50.906;4.198;2022-11-15T07:24:34;2.35;;;1.92;;
74616;SDS011;63123;50.906;4.198;2022-11-15T07:26:59;2.28;;;2.08;;
74616;SDS011;63123;50.906;4.198;2022-11-15T07:29:25;2.22;;;2.03;;
74616;SDS011;63123;50.906;4.198;2022-11-15T07:31:51;2.25;;;2.05;;
74616;SDS011;63123;50.906;4.198;2022-11-15T07:34:16;2.55;;;2.22;;
74616;SDS011;63123;50.906;4.198;2022-11-15T07:36:42;2.42;;;2.22;;
74616;SDS011;63123;50.906;4.198;2022-11-15T07:39:07;2.67;;;1.90;;
74616;SDS011;63123;50.906;4.198;2022-11-15T07:41:33;2.65;;;2.45;;
74616;SDS011;63123;50.906;4.198;2022-11-15T07:43:59;2.65;;;2.45;;
74616;SDS011;63123;50.906;4.198;2022-11-15T07:46:26;2.20;;;2.00;;
74616;SDS011;63123;50.906;4.198;2022-11-15T07:48:52;2.45;;;1.90;;
74616;SDS011;63123;50.906;4.198;2022-11-15T07:51:17;2.40;;;2.20;;
74616;SDS011;63123;50.906;4.198;2022-11-15T07:53:43;2.42;;;1.88;;
74616;SDS011;63123;50.906;4.198;2022-11-15T07:56:09;2.40;;;2.20;;
74616;SDS011;63123;50.906;4.198;2022-11-15T07:58:36;2.17;;;1.98;;
74616;SDS011;63123;50.906;4.198;2022-11-15T08:01:05;2.65;;;1.90;;
74616;SDS011;63123;50.906;4.198;2022-11-15T08:03:32;2.17;;;2.08;;
74616;SDS011;63123;50.906;4.198;2022-11-15T08:05:58;2.35;;;2.15;;
74616;SDS011;63123;50.906;4.198;2022-11-15T08:08:24;2.28;;;1.73;;
74616;SDS011;63123;50.906;4.198;2022-11-15T08:10:49;2.25;;;2.05;;
74616;SDS011;63123;50.906;4.198;2022-11-15T08:13:15;3.15;;;2.42;;
74616;SDS011;63123;50.906;4.198;2022-11-15T08:15:41;1.75;;;1.65;;
74616;SDS011;63123;50.906;4.198;2022-11-15T08:18:10;2.10;;;1.90;;
74616;SDS011;63123;50.906;4.198;2022-11-15T08:20:37;2.00;;;1.88;;
74616;SDS011;63123;50.906;4.198;2022-11-15T08:23:03;3.05;;;2.00;;
74616;SDS011;63123;50.906;4.198;2022-11-15T08:25:31;2.03;;;1.83;;
74616;SDS011;63123;50.906;4.198;2022-11-15T08:27:58;1.90;;;1.70;;
74616;SDS011;63123;50.906;4.198;2022-11-15T08:30:25;2.10;;;1.75;;
74616;SDS011;63123;50.906;4.198;2022-11-15T08:32:52;2.35;;;2.15;;
74616;SDS011;63123;50.906;4.198;2022-11-15T08:35:19;1.85;;;1.52;;
74616;SDS011;63123;50.906;4.198;2022-11-15T08:37:45;1.90;;;1.70;;
74616;SDS011;63123;50.906;4.198;2022-11-15T08:40:11;2.65;;;1.83;;
74616;SDS011;63123;50.906;4.198;2022-11-15T08:42:37;2.03;;;1.67;;
74616;SDS011;63123;50.906;4.198;2022-11-15T08:45:03;1.92;;;1.75;;
74616;SDS011;63123;50.906;4.198;2022-11-15T08:47:29;1.67;;;1.58;;
74616;SDS011;63123;50.906;4.198;2022-11-15T08:49:54;2.85;;;1.70;;
74616;SDS011;63123;50.906;4.198;2022-11-15T08:52:20;1.80;;;1.70;;
74616;SDS011;63123;50.906;4.198;2022-11-15T08:54:46;1.63;;;1.48;;
74616;SDS011;63123;50.906;4.198;2022-11-15T08:57:12;1.75;;;1.65;;
74616;SDS011;63123;50.906;4.198;2022-11-15T08:59:37;1.70;;;1.60;;
74616;SDS011;63123;50.906;4.198;2022-11-15T09:02:03;2.60;;;1.80;;
74616;SDS011;63123;50.906;4.198;2022-11-15T09:04:29;1.73;;;1.52;;
74616;SDS011;63123;50.906;4.198;2022-11-15T09:06:55;1.50;;;1.25;;
74616;SDS011;63123;50.906;4.198;2022-11-15T09:09:21;1.73;;;1.60;;
74616;SDS011;63123;50.906;4.198;2022-11-15T09:11:46;1.65;;;1.40;;
74616;SDS011;63123;50.906;4.198;2022-11-15T09:14:12;2.13;;;1.92;;
74616;SDS011;63123;50.906;4.198;2022-11-15T09:16:38;2.95;;;1.73;;
74616;SDS011;63123;50.906;4.198;2022-11-15T09:19:04;1.45;;;1.30;;
74616;SDS011;63123;50.906;4.198;2022-11-15T09:21:30;2.10;;;1.80;;
74616;SDS011;63123;50.906;4.198;2022-11-15T09:23:56;1.88;;;1.48;;
74616;SDS011;63123;50.906;4.198;2022-11-15T09:26:22;1.67;;;1.42;;
74616;SDS011;63123;50.906;4.198;2022-11-15T09:28:47;3.03;;;1.60;;
74616;SDS011;63123;50.906;4.198;2022-11-15T09:31:13;2.05;;;1.40;;
74616;SDS011;63123;50.906;4.198;2022-11-15T09:33:39;1.63;;;1.52;;
74616;SDS011;63123;50.906;4.198;2022-11-15T09:36:05;2.03;;;1.90;;
74616;SDS011;63123;50.906;4.198;2022-11-15T09:38:33;1.75;;;1.40;;
74616;SDS011;63123;50.906;4.198;2022-11-15T09:41:13;2.25;;;1.50;;
74616;SDS011;63123;50.906;4.198;2022-11-15T09:43:53;1.60;;;1.50;;
74616;SDS011;63123;50.906;4.198;2022-11-15T09:49:42;1.20;;;1.10;;
74616;SDS011;63123;50.906;4.198;2022-11-15T09:52:08;1.52;;;1.33;;
74616;SDS011;63123;50.906;4.198;2022-11-15T09:54:39;1.42;;;1.33;;
74616;SDS011;63123;50.906;4.198;2022-11-15T09:57:12;1.75;;;1.40;;
74616;SDS011;63123;50.906;4.198;2022-11-15T10:05:28;1.95;;;1.38;;
74616;SDS011;63123;50.906;4.198;2022-11-15T10:10:42;1.02;;;0.93;;
74616;SDS011;63123;50.906;4.198;2022-11-15T10:13:28;2.00;;;1.40;;
74616;SDS011;63123;50.906;4.198;2022-11-15T10:16:04;2.35;;;1.30;;
74616;SDS011;63123;50.906;4.198;2022-11-15T10:24:40;2.88;;;1.50;;
74616;SDS011;63123;50.906;4.198;2022-11-15T10:27:11;2.13;;;1.27;;
74616;SDS011;63123;50.906;4.198;2022-11-15T10:29:43;1.50;;;1.38;;
74616;SDS011;63123;50.906;4.198;2022-11-15T10:32:13;3.45;;;1.60;;
74616;SDS011;63123;50.906;4.198;2022-11-15T10:34:40;1.80;;;1.15;;
74616;SDS011;63123;50.906;4.198;2022-11-15T10:37:06;3.13;;;1.63;;
74616;SDS011;63123;50.906;4.198;2022-11-15T10:39:32;2.67;;;1.40;;
74616;SDS011;63123;50.906;4.198;2022-11-15T10:44:51;1.30;;;1.20;;
74616;SDS011;63123;50.906;4.198;2022-11-15T10:47:24;1.63;;;1.30;;
74616;SDS011;63123;50.906;4.198;2022-11-15T10:49:56;1.23;;;0.98;;
74616;SDS011;63123;50.906;4.198;2022-11-15T10:52:28;1.35;;;1.10;;
74616;SDS011;63123;50.906;4.198;2022-11-15T10:54:56;1.45;;;1.10;;
74616;SDS011;63123;50.906;4.198;2022-11-15T10:57:28;2.08;;;1.20;;
74616;SDS011;63123;50.906;4.198;2022-11-15T11:00:07;1.13;;;1.02;;
74616;SDS011;63123;50.906;4.198;2022-11-15T11:02:57;1.58;;;1.42;;
74616;SDS011;63123;50.906;4.198;2022-11-15T11:05:26;1.20;;;1.10;;
74616;SDS011;63123;50.906;4.198;2022-11-15T11:07:57;1.63;;;1.00;;
74616;SDS011;63123;50.906;4.198;2022-11-15T11:10:26;1.63;;;1.00;;
74616;SDS011;63123;50.906;4.198;2022-11-15T11:12:52;1.52;;;1.25;;
74616;SDS011;63123;50.906;4.198;2022-11-15T11:15:19;2.10;;;1.25;;
74616;SDS011;63123;50.906;4.198;2022-11-15T11:20:34;1.55;;;1.10;;
74616;SDS011;63123;50.906;4.198;2022-11-15T11:23:18;1.13;;;1.00;;
74616;SDS011;63123;50.906;4.198;2022-11-15T11:28:48;1.50;;;1.00;;
74616;SDS011;63123;50.906;4.198;2022-11-15T11:37:17;1.50;;;0.93;;
74616;SDS011;63123;50.906;4.198;2022-11-15T11:43:15;1.75;;;0.95;;
74616;SDS011;63123;50.906;4.198;2022-11-15T11:46:04;1.98;;;1.27;;
74616;SDS011;63123;50.906;4.198;2022-11-15T11:48:41;1.10;;;1.00;;
74616;SDS011;63123;50.906;4.198;2022-11-15T11:51:17;2.53;;;1.00;;
74616;SDS011;63123;50.906;4.198;2022-11-15T11:53:52;3.35;;;1.40;;
74616;SDS011;63123;50.906;4.198;2022-11-15T11:59:28;9.13;;;1.70;;
74616;SDS011;63123;50.906;4.198;2022-11-15T12:01:56;7.55;;;1.83;;
74616;SDS011;63123;50.906;4.198;2022-11-15T12:12:35;6.18;;;1.52;;
74616;SDS011;63123;50.906;4.198;2022-11-15T12:17:31;6.35;;;1.58;;
74616;SDS011;63123;50.906;4.198;2022-11-15T12:19:58;3.65;;;1.15;;
74616;SDS011;63123;50.906;4.198;2022-11-15T12:22:41;2.88;;;1.20;;
74616;SDS011;63123;50.906;4.198;2022-11-15T12:25:40;1.80;;;1.08;;
74616;SDS011;63123;50.906;4.198;2022-11-15T12:28:14;2.30;;;1.40;;
74616;SDS011;63123;50.906;4.198;2022-11-15T12:30:50;2.60;;;0.90;;
74616;SDS011;63123;50.906;4.198;2022-11-15T12:33:42;3.90;;;1.60;;
74616;SDS011;63123;50.906;4.198;2022-11-15T12:39:00;6.57;;;1.35;;
74616;SDS011;63123;50.906;4.198;2022-11-15T12:59:50;4.05;;;1.58;;
74616;SDS011;63123;50.906;4.198;2022-11-15T13:02:35;3.65;;;1.27;;
74616;SDS011;63123;50.906;4.198;2022-11-15T13:08:00;3.15;;;1.10;;
74616;SDS011;63123;50.906;4.198;2022-11-15T13:17:50;3.13;;;1.35;;
74616;SDS011;63123;50.906;4.198;2022-11-15T13:22:42;2.47;;;1.48;;
74616;SDS011;63123;50.906;4.198;2022-11-15T13:30:52;2.63;;;1.60;;
74616;SDS011;63123;50.906;4.198;2022-11-15T13:33:21;3.92;;;1.60;;
74616;SDS011;63123;50.906;4.198;2022-11-15T13:35:50;1.30;;;1.08;;
74616;SDS011;63123;50.906;4.198;2022-11-15T13:38:26;2.85;;;1.40;;
74616;SDS011;63123;50.906;4.198;2022-11-15T13:40:51;4.53;;;1.80;;
74616;SDS011;63123;50.906;4.198;2022-11-15T13:46:10;1.75;;;1.20;;
74616;SDS011;63123;50.906;4.198;2022-11-15T13:48:41;3.70;;;1.73;;
74616;SDS011;63123;50.906;4.198;2022-11-15T13:56:33;3.95;;;1.80;;
74616;SDS011;63123;50.906;4.198;2022-11-15T13:59:00;2.40;;;1.83;;
74616;SDS011;63123;50.906;4.198;2022-11-15T14:01:32;2.55;;;1.38;;
74616;SDS011;63123;50.906;4.198;2022-11-15T14:03:59;3.85;;;1.92;;
74616;SDS011;63123;50.906;4.198;2022-11-15T14:06:27;3.80;;;1.90;;
74616;SDS011;63123;50.906;4.198;2022-11-15T14:09:55;1.92;;;1.70;;
74616;SDS011;63123;50.906;4.198;2022-11-15T14:12:20;3.97;;;1.77;;
74616;SDS011;63123;50.906;4.198;2022-11-15T14:14:49;2.40;;;1.58;;
74616;SDS011;63123;50.906;4.198;2022-11-15T14:17:34;4.82;;;2.20;;
74616;SDS011;63123;50.906;4.198;2022-11-15T14:20:02;1.60;;;1.50;;
74616;SDS011;63123;50.906;4.198;2022-11-15T14:23:05;1.63;;;1.20;;
74616;SDS011;63123;50.906;4.198;2022-11-15T14:25:51;1.50;;;1.40;;
74616;SDS011;63123;50.906;4.198;2022-11-15T14:30:54;1.50;;;1.40;;
74616;SDS011;63123;50.906;4.198;2022-11-15T14:35:48;2.97;;;1.48;;
74616;SDS011;63123;50.906;4.198;2022-11-15T14:38:15;1.60;;;1.50;;
74616;SDS011;63123;50.906;4.198;2022-11-15T14:40:41;3.92;;;2.05;;
74616;SDS011;63123;50.906;4.198;2022-11-15T14:43:08;6.43;;;1.80;;
74616;SDS011;63123;50.906;4.198;2022-11-15T14:45:36;2.33;;;1.60;;
74616;SDS011;63123;50.906;4.198;2022-11-15T14:48:02;1.75;;;1.58;;
74616;SDS011;63123;50.906;4.198;2022-11-15T14:50:28;3.53;;;1.48;;
74616;SDS011;63123;50.906;4.198;2022-11-15T14:52:54;4.13;;;1.67;;
74616;SDS011;63123;50.906;4.198;2022-11-15T14:55:21;3.22;;;1.23;;
74616;SDS011;63123;50.906;4.198;2022-11-15T14:57:53;3.42;;;1.98;;
74616;SDS011;63123;50.906;4.198;2022-11-15T15:00:19;2.97;;;1.50;;
74616;SDS011;63123;50.906;4.198;2022-11-15T15:02:46;3.58;;;1.50;;
74616;SDS011;63123;50.906;4.198;2022-11-15T15:05:17;3.60;;;1.48;;
74616;SDS011;63123;50.906;4.198;2022-11-15T15:08:09;2.03;;;1.40;;
74616;SDS011;63123;50.906;4.198;2022-11-15T15:10:39;2.03;;;1.48;;
74616;SDS011;63123;50.906;4.198;2022-11-15T15:13:10;3.08;;;1.58;;
74616;SDS011;63123;50.906;4.198;2022-11-15T15:15:45;4.40;;;1.60;;
74616;SDS011;63123;50.906;4.198;2022-11-15T15:18:11;2.25;;;1.73;;
74616;SDS011;63123;50.906;4.198;2022-11-15T15:20:37;3.15;;;1.40;;
74616;SDS011;63123;50.906;4.198;2022-11-15T15:23:05;7.40;;;1.85;;
74616;SDS011;63123;50.906;4.198;2022-11-15T15:25:43;3.67;;;1.75;;
74616;SDS011;63123;50.906;4.198;2022-11-15T15:28:10;4.50;;;1.65;;
74616;SDS011;63123;50.906;4.198;2022-11-15T15:30:36;3.75;;;1.95;;
74616;SDS011;63123;50.906;4.198;2022-11-15T15:33:02;3.67;;;1.75;;
74616;SDS011;63123;50.906;4.198;2022-11-15T15:35:29;3.40;;;1.67;;
74616;SDS011;63123;50.906;4.198;2022-11-15T15:37:56;3.85;;;1.65;;
74616;SDS011;63123;50.906;4.198;2022-11-15T15:40:22;3.20;;;1.70;;
74616;SDS011;63123;50.906;4.198;2022-11-15T15:42:50;5.00;;;1.58;;
74616;SDS011;63123;50.906;4.198;2022-11-15T15:45:16;2.97;;;1.60;;
74616;SDS011;63123;50.906;4.198;2022-11-15T15:47:43;2.28;;;1.50;;
74616;SDS011;63123;50.906;4.198;2022-11-15T15:50:32;3.90;;;1.40;;
74616;SDS011;63123;50.906;4.198;2022-11-15T15:52:58;6.88;;;1.80;;
74616;SDS011;63123;50.906;4.198;2022-11-15T15:55:25;3.67;;;1.50;;
74616;SDS011;63123;50.906;4.198;2022-11-15T15:57:51;2.95;;;1.35;;
74616;SDS011;63123;50.906;4.198;2022-11-15T16:00:18;2.35;;;1.30;;
74616;SDS011;63123;50.906;4.198;2022-11-15T16:02:44;3.05;;;1.42;;
74616;SDS011;63123;50.906;4.198;2022-11-15T16:05:10;3.35;;;1.33;;
74616;SDS011;63123;50.906;4.198;2022-11-15T16:07:37;3.28;;;1.30;;
74616;SDS011;63123;50.906;4.198;2022-11-15T16:10:49;2.10;;;1.30;;
74616;SDS011;63123;50.906;4.198;2022-11-15T16:12:52;2.17;;;1.10;;
74616;SDS011;63123;50.906;4.198;2022-11-15T16:15:18;2.17;;;1.25;;
74616;SDS011;63123;50.906;4.198;2022-11-15T16:17:47;2.47;;;1.48;;
74616;SDS011;63123;50.906;4.198;2022-11-15T16:22:47;3.03;;;1.35;;
74616;SDS011;63123;50.906;4.198;2022-11-15T16:25:12;1.55;;;1.30;;
74616;SDS011;63123;50.906;4.198;2022-11-15T16:27:38;2.50;;;1.33;;
74616;SDS011;63123;50.906;4.198;2022-11-15T16:30:12;1.65;;;1.08;;
74616;SDS011;63123;50.906;4.198;2022-11-15T16:32:41;3.08;;;1.55;;
74616;SDS011;63123;50.906;4.198;2022-11-15T16:35:10;1.35;;;1.25;;
74616;SDS011;63123;50.906;4.198;2022-11-15T16:37:37;1.67;;;1.30;;
74616;SDS011;63123;50.906;4.198;2022-11-15T16:40:04;1.95;;;1.40;;
74616;SDS011;63123;50.906;4.198;2022-11-15T16:42:35;1.55;;;1.20;;
74616;SDS011;63123;50.906;4.198;2022-11-15T16:45:01;2.50;;;1.33;;
74616;SDS011;63123;50.906;4.198;2022-11-15T16:47:27;1.88;;;1.10;;
74616;SDS011;63123;50.906;4.198;2022-11-15T16:49:52;2.05;;;1.48;;
74616;SDS011;63123;50.906;4.198;2022-11-15T16:52:18;1.50;;;1.27;;
74616;SDS011;63123;50.906;4.198;2022-11-15T16:54:43;1.60;;;1.45;;
74616;SDS011;63123;50.906;4.198;2022-11-15T16:57:10;2.70;;;1.17;;
74616;SDS011;63123;50.906;4.198;2022-11-15T16:59:35;1.73;;;0.90;;
74616;SDS011;63123;50.906;4.198;2022-11-15T17:02:01;1.40;;;1.20;;
74616;SDS011;63123;50.906;4.198;2022-11-15T17:04:26;1.20;;;1.10;;
74616;SDS011;63123;50.906;4.198;2022-11-15T17:06:56;2.60;;;1.65;;
74616;SDS011;63123;50.906;4.198;2022-11-15T17:09:22;1.02;;;0.93;;
74616;SDS011;63123;50.906;4.198;2022-11-15T17:11:48;1.48;;;1.30;;
74616;SDS011;63123;50.906;4.198;2022-11-15T17:14:14;2.65;;;1.90;;
74616;SDS011;63123;50.906;4.198;2022-11-15T17:16:40;1.67;;;1.38;;